sensor_id;sensor_type;location;lat;lon;timestamp;pressure;altitude;pressure_sealevel;temperature;humidity
85163;BME280;75527;48.526;9.158;2024-01-15T00:01:54;96171.44;;;-2.39;67.21
85163;BME280;75527;48.526;9.158;2024-01-15T00:04:19;96203.81;;;-2.17;67.25
85163;BME280;75527;48.526;9.158;2024-01-15T00:06:45;96215.16;;;-2.18;67.16
85163;BME280;75527;48.526;9.158;2024-01-15T00:09:10;96211.59;;;-2.17;68.06
85163;BME280;75527;48.526;9.158;2024-01-15T00:11:35;96214.34;;;-2.12;67.67
85163;BME280;75527;48.526;9.158;2024-01-15T00:14:01;96207.19;;;-2.16;67.84
85163;BME280;75527;48.526;9.158;2024-01-15T00:16:26;96216.94;;;-2.12;67.26
85163;BME280;75527;48.526;9.158;2024-01-15T00:18:51;96191.47;;;-2.21;67.54
85163;BME280;75527;48.526;9.158;2024-01-15T00:21:16;96193.25;;;-2.15;66.40
85163;BME280;75527;48.526;9.158;2024-01-15T00:23:43;96165.28;;;-2.45;67.36
85163;BME280;75527;48.526;9.158;2024-01-15T00:26:09;96160.50;;;-2.41;66.89
85163;BME280;75527;48.526;9.158;2024-01-15T00:28:36;96165.25;;;-2.31;66.48
85163;BME280;75527;48.526;9.158;2024-01-15T00:31:01;96198.81;;;-2.12;66.75
85163;BME280;75527;48.526;9.158;2024-01-15T00:33:26;96203.56;;;-2.08;66.40
85163;BME280;75527;48.526;9.158;2024-01-15T00:35:52;96170.38;;;-2.25;67.52
85163;BME280;75527;48.526;9.158;2024-01-15T00:38:17;96170.00;;;-2.28;66.87
85163;BME280;75527;48.526;9.158;2024-01-15T00:40:43;96201.34;;;-2.05;67.10
85163;BME280;75527;48.526;9.158;2024-01-15T00:43:08;96205.75;;;-2.05;68.04
85163;BME280;75527;48.526;9.158;2024-01-15T00:45:33;96188.63;;;-2.06;66.91
85163;BME280;75527;48.526;9.158;2024-01-15T00:47:58;96196.16;;;-2.05;67.48
85163;BME280;75527;48.526;9.158;2024-01-15T00:50:26;96179.28;;;-2.14;68.12
85163;BME280;75527;48.526;9.158;2024-01-15T00:52:51;96191.31;;;-1.95;68.02
85163;BME280;75527;48.526;9.158;2024-01-15T00:55:16;96189.59;;;-2.01;67.99
85163;BME280;75527;48.526;9.158;2024-01-15T00:57:42;96182.97;;;-1.97;66.32
85163;BME280;75527;48.526;9.158;2024-01-15T01:00:07;96182.50;;;-1.87;67.25
85163;BME280;75527;48.526;9.158;2024-01-15T01:02:34;96132.66;;;-2.14;67.66
85163;BME280;75527;48.526;9.158;2024-01-15T01:04:59;96125.31;;;-2.17;67.36
85163;BME280;75527;48.526;9.158;2024-01-15T01:07:24;96168.19;;;-1.90;67.45
85163;BME280;75527;48.526;9.158;2024-01-15T01:09:49;96151.50;;;-2.00;67.60
85163;BME280;75527;48.526;9.158;2024-01-15T01:12:16;96150.34;;;-2.04;67.22
85163;BME280;75527;48.526;9.158;2024-01-15T01:14:41;96179.56;;;-1.91;67.46
85163;BME280;75527;48.526;9.158;2024-01-15T01:17:07;96158.50;;;-2.01;67.23
85163;BME280;75527;48.526;9.158;2024-01-15T01:19:32;96180.13;;;-1.89;67.18
85163;BME280;75527;48.526;9.158;2024-01-15T01:21:57;96180.50;;;-1.85;67.30
85163;BME280;75527;48.526;9.158;2024-01-15T01:24:23;96154.34;;;-2.08;67.22
85163;BME280;75527;48.526;9.158;2024-01-15T01:26:48;96197.84;;;-1.86;67.88
85163;BME280;75527;48.526;9.158;2024-01-15T01:29:14;96169.47;;;-2.05;67.84
85163;BME280;75527;48.526;9.158;2024-01-15T01:31:45;96201.56;;;-1.75;66.92
85163;BME280;75527;48.526;9.158;2024-01-15T01:34:14;96202.72;;;-1.71;67.07
85163;BME280;75527;48.526;9.158;2024-01-15T01:36:39;96193.19;;;-1.77;67.21
85163;BME280;75527;48.526;9.158;2024-01-15T01:39:05;96165.88;;;-2.04;68.22
85163;BME280;75527;48.526;9.158;2024-01-15T01:41:31;96199.16;;;-1.76;68.08
85163;BME280;75527;48.526;9.158;2024-01-15T01:43:57;96181.19;;;-1.96;68.10
85163;BME280;75527;48.526;9.158;2024-01-15T01:46:23;96165.88;;;-2.04;68.25
85163;BME280;75527;48.526;9.158;2024-01-15T01:48:48;96178.94;;;-1.93;67.61
85163;BME280;75527;48.526;9.158;2024-01-15T01:51:14;96150.19;;;-2.10;68.71
85163;BME280;75527;48.526;9.158;2024-01-15T01:53:40;96196.47;;;-1.88;68.38
85163;BME280;75527;48.526;9.158;2024-01-15T01:56:06;96186.47;;;-1.85;68.22
85163;BME280;75527;48.526;9.158;2024-01-15T01:58:32;96196.25;;;-1.87;67.93
85163;BME280;75527;48.526;9.158;2024-01-15T02:00:59;96185.53;;;-1.90;68.39
85163;BME280;75527;48.526;9.158;2024-01-15T02:03:26;96183.56;;;-1.95;68.41
85163;BME280;75527;48.526;9.158;2024-01-15T02:05:52;96176.97;;;-1.97;69.08
85163;BME280;75527;48.526;9.158;2024-01-15T02:08:18;96184.34;;;-1.94;68.50
85163;BME280;75527;48.526;9.158;2024-01-15T02:10:43;96186.84;;;-1.81;69.77
85163;BME280;75527;48.526;9.158;2024-01-15T02:13:08;96169.19;;;-1.91;68.85
85163;BME280;75527;48.526;9.158;2024-01-15T02:15:34;96184.22;;;-1.74;69.28
85163;BME280;75527;48.526;9.158;2024-01-15T02:18:04;96182.03;;;-1.77;69.32
85163;BME280;75527;48.526;9.158;2024-01-15T02:20:31;96185.19;;;-1.69;69.03
85163;BME280;75527;48.526;9.158;2024-01-15T02:23:10;96130.41;;;-2.04;69.11
85163;BME280;75527;48.526;9.158;2024-01-15T02:25:43;96178.09;;;-1.80;68.47
85163;BME280;75527;48.526;9.158;2024-01-15T02:28:11;96171.72;;;-1.84;69.70
85163;BME280;75527;48.526;9.158;2024-01-15T02:30:37;96168.59;;;-1.93;69.55
85163;BME280;75527;48.526;9.158;2024-01-15T02:33:07;96170.16;;;-1.92;69.08
85163;BME280;75527;48.526;9.158;2024-01-15T02:35:33;96169.59;;;-1.94;69.99
85163;BME280;75527;48.526;9.158;2024-01-15T02:38:01;96124.72;;;-2.19;69.38
85163;BME280;75527;48.526;9.158;2024-01-15T02:40:27;96135.25;;;-2.14;68.70
85163;BME280;75527;48.526;9.158;2024-01-15T02:42:52;96151.50;;;-2.00;69.88
85163;BME280;75527;48.526;9.158;2024-01-15T02:45:17;96146.16;;;-2.05;69.61
85163;BME280;75527;48.526;9.158;2024-01-15T02:47:42;96165.84;;;-1.98;70.15
85163;BME280;75527;48.526;9.158;2024-01-15T02:50:08;96163.47;;;-1.99;69.88
85163;BME280;75527;48.526;9.158;2024-01-15T02:52:33;96159.84;;;-1.98;70.31
85163;BME280;75527;48.526;9.158;2024-01-15T02:54:59;96132.91;;;-2.22;70.77
85163;BME280;75527;48.526;9.158;2024-01-15T02:57:24;96148.75;;;-2.05;70.25
85163;BME280;75527;48.526;9.158;2024-01-15T02:59:49;96137.28;;;-2.16;70.06
85163;BME280;75527;48.526;9.158;2024-01-15T03:02:15;96152.19;;;-2.12;70.84
85163;BME280;75527;48.526;9.158;2024-01-15T03:04:46;96155.53;;;-2.04;70.66
85163;BME280;75527;48.526;9.158;2024-01-15T03:07:11;96148.00;;;-2.13;70.88
85163;BME280;75527;48.526;9.158;2024-01-15T03:09:37;96111.88;;;-2.32;70.60
85163;BME280;75527;48.526;9.158;2024-01-15T03:12:03;96126.75;;;-2.28;70.72
85163;BME280;75527;48.526;9.158;2024-01-15T03:14:28;96162.38;;;-2.17;71.13
85163;BME280;75527;48.526;9.158;2024-01-15T03:16:53;96148.44;;;-2.16;70.38
85163;BME280;75527;48.526;9.158;2024-01-15T03:19:19;96131.94;;;-2.21;71.00
85163;BME280;75527;48.526;9.158;2024-01-15T03:21:44;96149.88;;;-1.95;69.72
85163;BME280;75527;48.526;9.158;2024-01-15T03:24:09;96119.34;;;-2.18;69.62
85163;BME280;75527;48.526;9.158;2024-01-15T03:26:35;96127.34;;;-1.94;70.27
85163;BME280;75527;48.526;9.158;2024-01-15T03:29:00;96150.84;;;-1.89;70.18
85163;BME280;75527;48.526;9.158;2024-01-15T03:31:26;96152.53;;;-1.76;68.99
85163;BME280;75527;48.526;9.158;2024-01-15T03:33:51;96110.34;;;-1.84;69.82
85163;BME280;75527;48.526;9.158;2024-01-15T03:36:16;96125.28;;;-1.61;68.90
85163;BME280;75527;48.526;9.158;2024-01-15T03:38:42;96118.19;;;-1.65;69.07
85163;BME280;75527;48.526;9.158;2024-01-15T03:41:07;96118.47;;;-1.55;69.36
85163;BME280;75527;48.526;9.158;2024-01-15T03:43:33;96133.66;;;-1.59;69.42
85163;BME280;75527;48.526;9.158;2024-01-15T03:45:58;96136.09;;;-1.64;69.45
85163;BME280;75527;48.526;9.158;2024-01-15T03:48:24;96129.53;;;-1.66;69.60
85163;BME280;75527;48.526;9.158;2024-01-15T03:50:49;96121.81;;;-1.73;69.79
85163;BME280;75527;48.526;9.158;2024-01-15T03:53:14;96153.13;;;-1.49;69.27
85163;BME280;75527;48.526;9.158;2024-01-15T03:55:39;96154.72;;;-1.48;69.67
85163;BME280;75527;48.526;9.158;2024-01-15T03:58:05;96142.91;;;-1.44;69.48
85163;BME280;75527;48.526;9.158;2024-01-15T04:00:30;96132.44;;;-1.56;69.87
85163;BME280;75527;48.526;9.158;2024-01-15T04:02:56;96132.44;;;-1.56;69.58
85163;BME280;75527;48.526;9.158;2024-01-15T04:05:21;96146.03;;;-1.61;70.29
85163;BME280;75527;48.526;9.158;2024-01-15T04:07:46;96142.00;;;-1.57;70.42
85163;BME280;75527;48.526;9.158;2024-01-15T04:10:11;96137.19;;;-1.53;70.75
85163;BME280;75527;48.526;9.158;2024-01-15T04:12:37;96150.72;;;-1.51;70.38
85163;BME280;75527;48.526;9.158;2024-01-15T04:15:03;96136.41;;;-1.53;71.25
85163;BME280;75527;48.526;9.158;2024-01-15T04:17:28;96145.53;;;-1.51;70.50
85163;BME280;75527;48.526;9.158;2024-01-15T04:19:53;96128.53;;;-1.65;71.34
85163;BME280;75527;48.526;9.158;2024-01-15T04:22:19;96119.78;;;-1.71;71.34
85163;BME280;75527;48.526;9.158;2024-01-15T04:24:44;96156.50;;;-1.49;71.49
85163;BME280;75527;48.526;9.158;2024-01-15T04:27:09;96148.78;;;-1.55;71.97
85163;BME280;75527;48.526;9.158;2024-01-15T04:29:37;96153.22;;;-1.63;71.80
85163;BME280;75527;48.526;9.158;2024-01-15T04:32:03;96136.34;;;-1.72;71.91
85163;BME280;75527;48.526;9.158;2024-01-15T04:34:28;96161.94;;;-1.57;71.02
85163;BME280;75527;48.526;9.158;2024-01-15T04:36:53;96159.75;;;-1.53;70.91
85163;BME280;75527;48.526;9.158;2024-01-15T04:39:19;96158.78;;;-1.59;71.68
85163;BME280;75527;48.526;9.158;2024-01-15T04:41:44;96149.59;;;-1.55;71.26
85163;BME280;75527;48.526;9.158;2024-01-15T04:44:09;96140.81;;;-1.54;72.13
85163;BME280;75527;48.526;9.158;2024-01-15T04:46:35;96145.19;;;-1.54;71.92
85163;BME280;75527;48.526;9.158;2024-01-15T04:49:00;96135.88;;;-1.62;71.76
85163;BME280;75527;48.526;9.158;2024-01-15T04:51:25;96093.22;;;-1.85;72.80
85163;BME280;75527;48.526;9.158;2024-01-15T04:53:50;96137.44;;;-1.61;72.66
85163;BME280;75527;48.526;9.158;2024-01-15T04:56:16;96145.97;;;-1.54;72.10
85163;BME280;75527;48.526;9.158;2024-01-15T04:58:41;96129.84;;;-1.56;72.98
85163;BME280;75527;48.526;9.158;2024-01-15T05:01:08;96120.38;;;-1.69;73.25
85163;BME280;75527;48.526;9.158;2024-01-15T05:03:33;96111.84;;;-1.76;73.33
85163;BME280;75527;48.526;9.158;2024-01-15T05:05:58;96110.34;;;-1.59;72.55
85163;BME280;75527;48.526;9.158;2024-01-15T05:08:23;96119.75;;;-1.64;73.19
85163;BME280;75527;48.526;9.158;2024-01-15T05:10:49;96126.91;;;-1.60;73.06
85163;BME280;75527;48.526;9.158;2024-01-15T05:13:14;96120.16;;;-1.67;72.50
85163;BME280;75527;48.526;9.158;2024-01-15T05:15:39;96131.63;;;-1.57;72.95
85163;BME280;75527;48.526;9.158;2024-01-15T05:18:05;96093.53;;;-1.74;73.67
85163;BME280;75527;48.526;9.158;2024-01-15T05:20:31;96121.13;;;-1.62;73.93
85163;BME280;75527;48.526;9.158;2024-01-15T05:22:56;96115.50;;;-1.59;73.99
85163;BME280;75527;48.526;9.158;2024-01-15T05:25:22;96112.47;;;-1.55;73.78
85163;BME280;75527;48.526;9.158;2024-01-15T05:27:47;96103.72;;;-1.54;74.40
85163;BME280;75527;48.526;9.158;2024-01-15T05:30:13;96080.75;;;-1.76;74.76
85163;BME280;75527;48.526;9.158;2024-01-15T05:32:38;96102.56;;;-1.59;74.98
85163;BME280;75527;48.526;9.158;2024-01-15T05:35:04;96100.19;;;-1.60;74.44
85163;BME280;75527;48.526;9.158;2024-01-15T05:37:29;96079.16;;;-1.70;75.38
85163;BME280;75527;48.526;9.158;2024-01-15T05:39:55;96077.13;;;-1.68;74.84
85163;BME280;75527;48.526;9.158;2024-01-15T05:42:20;96095.19;;;-1.62;74.37
85163;BME280;75527;48.526;9.158;2024-01-15T05:44:45;96079.16;;;-1.70;74.62
85163;BME280;75527;48.526;9.158;2024-01-15T05:47:11;96092.97;;;-1.58;74.45
85163;BME280;75527;48.526;9.158;2024-01-15T05:49:36;96082.09;;;-1.67;73.94
85163;BME280;75527;48.526;9.158;2024-01-15T05:52:01;96103.09;;;-1.50;74.59
85163;BME280;75527;48.526;9.158;2024-01-15T05:54:27;96096.09;;;-1.49;73.31
85163;BME280;75527;48.526;9.158;2024-01-15T05:56:52;96102.22;;;-1.44;73.88
85163;BME280;75527;48.526;9.158;2024-01-15T05:59:17;96110.03;;;-1.50;73.30
85163;BME280;75527;48.526;9.158;2024-01-15T06:01:42;96113.00;;;-1.47;72.79
85163;BME280;75527;48.526;9.158;2024-01-15T06:04:08;96070.41;;;-1.76;72.71
85163;BME280;75527;48.526;9.158;2024-01-15T06:06:33;96098.94;;;-1.58;73.07
85163;BME280;75527;48.526;9.158;2024-01-15T06:08:58;96116.69;;;-1.36;71.99
85163;BME280;75527;48.526;9.158;2024-01-15T06:11:30;96114.41;;;-1.44;72.56
85163;BME280;75527;48.526;9.158;2024-01-15T06:13:56;96111.34;;;-1.41;72.89
85163;BME280;75527;48.526;9.158;2024-01-15T06:16:21;96121.72;;;-1.41;71.94
85163;BME280;75527;48.526;9.158;2024-01-15T06:18:47;96116.69;;;-1.36;72.01
85163;BME280;75527;48.526;9.158;2024-01-15T06:21:12;96097.69;;;-1.48;72.17
85163;BME280;75527;48.526;9.158;2024-01-15T06:23:39;96097.97;;;-1.38;71.66
85163;BME280;75527;48.526;9.158;2024-01-15T06:26:05;96073.75;;;-1.50;72.01
85163;BME280;75527;48.526;9.158;2024-01-15T06:28:30;96113.53;;;-1.38;71.96
85163;BME280;75527;48.526;9.158;2024-01-15T06:30:55;96078.94;;;-1.50;71.50
85163;BME280;75527;48.526;9.158;2024-01-15T06:33:20;96083.94;;;-1.49;72.51
85163;BME280;75527;48.526;9.158;2024-01-15T06:35:46;96095.38;;;-1.38;71.44
85163;BME280;75527;48.526;9.158;2024-01-15T06:38:11;96094.59;;;-1.39;71.31
85163;BME280;75527;48.526;9.158;2024-01-15T06:40:36;96096.59;;;-1.41;71.25
85163;BME280;75527;48.526;9.158;2024-01-15T06:43:02;96091.22;;;-1.39;71.29
85163;BME280;75527;48.526;9.158;2024-01-15T06:45:27;96060.63;;;-1.55;71.14
85163;BME280;75527;48.526;9.158;2024-01-15T06:47:53;96076.94;;;-1.48;70.76
85163;BME280;75527;48.526;9.158;2024-01-15T06:50:18;96087.16;;;-1.35;71.13
85163;BME280;75527;48.526;9.158;2024-01-15T06:52:43;96071.13;;;-1.44;71.12
85163;BME280;75527;48.526;9.158;2024-01-15T06:55:08;96083.28;;;-1.44;71.16
85163;BME280;75527;48.526;9.158;2024-01-15T06:57:34;96062.97;;;-1.47;71.23
85163;BME280;75527;48.526;9.158;2024-01-15T06:59:59;96066.97;;;-1.51;71.56
85163;BME280;75527;48.526;9.158;2024-01-15T07:02:25;96061.69;;;-1.38;70.21
85163;BME280;75527;48.526;9.158;2024-01-15T07:04:51;96084.28;;;-1.27;70.34
85163;BME280;75527;48.526;9.158;2024-01-15T07:07:17;96076.94;;;-1.30;71.05
85163;BME280;75527;48.526;9.158;2024-01-15T07:09:42;96072.53;;;-1.29;70.44
85163;BME280;75527;48.526;9.158;2024-01-15T07:12:07;96075.13;;;-1.29;70.15
85163;BME280;75527;48.526;9.158;2024-01-15T07:14:33;96070.31;;;-1.26;70.12
85163;BME280;75527;48.526;9.158;2024-01-15T07:16:58;96065.34;;;-1.27;69.51
85163;BME280;75527;48.526;9.158;2024-01-15T07:19:23;96062.13;;;-1.23;70.17
85163;BME280;75527;48.526;9.158;2024-01-15T07:21:49;96062.16;;;-1.29;69.66
85163;BME280;75527;48.526;9.158;2024-01-15T07:24:14;96061.31;;;-1.23;68.64
85163;BME280;75527;48.526;9.158;2024-01-15T07:26:39;96012.28;;;-1.43;68.60
85163;BME280;75527;48.526;9.158;2024-01-15T07:29:05;96049.78;;;-1.27;68.80
85163;BME280;75527;48.526;9.158;2024-01-15T07:31:30;95998.00;;;-1.52;67.79
85163;BME280;75527;48.526;9.158;2024-01-15T07:33:55;96005.56;;;-1.51;67.58
85163;BME280;75527;48.526;9.158;2024-01-15T07:36:21;96051.44;;;-1.15;66.56
85163;BME280;75527;48.526;9.158;2024-01-15T07:38:46;96016.31;;;-1.29;66.94
85163;BME280;75527;48.526;9.158;2024-01-15T07:41:13;96051.16;;;-1.07;66.67
85163;BME280;75527;48.526;9.158;2024-01-15T07:43:38;96049.63;;;-1.14;67.31
85163;BME280;75527;48.526;9.158;2024-01-15T07:46:04;96061.31;;;-1.05;66.25
85163;BME280;75527;48.526;9.158;2024-01-15T07:48:29;96035.00;;;-1.09;65.05
85163;BME280;75527;48.526;9.158;2024-01-15T07:50:54;96036.16;;;-1.05;65.29
85163;BME280;75527;48.526;9.158;2024-01-15T07:53:19;95998.56;;;-1.32;65.42
85163;BME280;75527;48.526;9.158;2024-01-15T07:55:45;96061.50;;;-0.88;65.05
85163;BME280;75527;48.526;9.158;2024-01-15T07:58:11;96051.34;;;-0.90;65.40
85163;BME280;75527;48.526;9.158;2024-01-15T08:00:36;96004.56;;;-1.32;66.00
85163;BME280;75527;48.526;9.158;2024-01-15T08:03:02;96034.56;;;-1.06;65.21
85163;BME280;75527;48.526;9.158;2024-01-15T08:05:28;96056.53;;;-0.90;65.36
85163;BME280;75527;48.526;9.158;2024-01-15T08:07:53;96056.00;;;-0.80;64.99
85163;BME280;75527;48.526;9.158;2024-01-15T08:10:18;96046.81;;;-0.94;64.02
85163;BME280;75527;48.526;9.158;2024-01-15T08:12:44;96041.88;;;-0.84;64.01
85163;BME280;75527;48.526;9.158;2024-01-15T08:15:09;96049.25;;;-0.81;64.19
85163;BME280;75527;48.526;9.158;2024-01-15T08:17:34;96045.06;;;-0.82;63.26
85163;BME280;75527;48.526;9.158;2024-01-15T08:20:00;96024.75;;;-0.85;64.50
85163;BME280;75527;48.526;9.158;2024-01-15T08:22:26;96033.03;;;-0.76;63.63
85163;BME280;75527;48.526;9.158;2024-01-15T08:24:51;96030.88;;;-0.68;62.22
85163;BME280;75527;48.526;9.158;2024-01-15T08:27:17;96020.25;;;-0.78;62.32
85163;BME280;75527;48.526;9.158;2024-01-15T08:29:42;96000.94;;;-0.82;62.62
85163;BME280;75527;48.526;9.158;2024-01-15T08:32:07;96005.94;;;-0.69;61.42
85163;BME280;75527;48.526;9.158;2024-01-15T08:34:33;95999.72;;;-0.68;61.36
85163;BME280;75527;48.526;9.158;2024-01-15T08:36:58;96023.81;;;-0.61;60.33
85163;BME280;75527;48.526;9.158;2024-01-15T08:39:24;96040.22;;;-0.48;61.72
85163;BME280;75527;48.526;9.158;2024-01-15T08:41:49;96042.25;;;-0.50;62.14
85163;BME280;75527;48.526;9.158;2024-01-15T08:44:14;96016.91;;;-0.67;62.08
85163;BME280;75527;48.526;9.158;2024-01-15T08:46:39;96056.50;;;-0.41;61.46
85163;BME280;75527;48.526;9.158;2024-01-15T08:49:05;96038.59;;;-0.19;63.52
85163;BME280;75527;48.526;9.158;2024-01-15T08:51:31;96040.41;;;-0.20;60.87
85163;BME280;75527;48.526;9.158;2024-01-15T08:53:56;96043.66;;;-0.24;59.81
85163;BME280;75527;48.526;9.158;2024-01-15T08:56:22;96052.00;;;-0.34;61.38
85163;BME280;75527;48.526;9.158;2024-01-15T08:58:47;96027.34;;;-0.43;61.59
85163;BME280;75527;48.526;9.158;2024-01-15T09:01:13;96028.13;;;-0.43;60.83
85163;BME280;75527;48.526;9.158;2024-01-15T09:03:39;96016.28;;;-0.50;60.97
85163;BME280;75527;48.526;9.158;2024-01-15T09:06:06;96012.66;;;-0.49;61.47
85163;BME280;75527;48.526;9.158;2024-01-15T09:08:32;96014.97;;;-0.41;60.74
85163;BME280;75527;48.526;9.158;2024-01-15T09:10:57;96002.50;;;-0.51;60.69
85163;BME280;75527;48.526;9.158;2024-01-15T09:13:23;95989.41;;;-0.56;61.74
85163;BME280;75527;48.526;9.158;2024-01-15T09:15:48;96029.31;;;-0.27;60.05
85163;BME280;75527;48.526;9.158;2024-01-15T09:18:14;96037.44;;;-0.23;59.75
85163;BME280;75527;48.526;9.158;2024-01-15T09:20:39;96041.38;;;-0.21;60.44
85163;BME280;75527;48.526;9.158;2024-01-15T09:23:05;96036.78;;;-0.19;60.22
85163;BME280;75527;48.526;9.158;2024-01-15T09:25:30;96005.25;;;-0.34;59.98
85163;BME280;75527;48.526;9.158;2024-01-15T09:27:55;96041.50;;;-0.16;60.23
85163;BME280;75527;48.526;9.158;2024-01-15T09:30:20;96011.81;;;-0.20;59.92
85163;BME280;75527;48.526;9.158;2024-01-15T09:32:46;95996.44;;;-0.33;60.21
85163;BME280;75527;48.526;9.158;2024-01-15T09:35:11;96005.97;;;-0.15;59.16
85163;BME280;75527;48.526;9.158;2024-01-15T09:37:36;95993.28;;;-0.12;58.40
85163;BME280;75527;48.526;9.158;2024-01-15T09:40:03;95986.97;;;-0.16;59.40
85163;BME280;75527;48.526;9.158;2024-01-15T09:42:29;96011.28;;;0.02;59.73
85163;BME280;75527;48.526;9.158;2024-01-15T09:44:54;95993.22;;;-0.05;58.13
85163;BME280;75527;48.526;9.158;2024-01-15T09:47:20;96000.53;;;0.10;58.30
85163;BME280;75527;48.526;9.158;2024-01-15T09:49:47;96007.34;;;0.11;58.49
85163;BME280;75527;48.526;9.158;2024-01-15T09:52:12;95999.19;;;0.19;58.25
85163;BME280;75527;48.526;9.158;2024-01-15T09:54:40;95999.75;;;0.33;57.40
85163;BME280;75527;48.526;9.158;2024-01-15T09:57:08;95991.72;;;0.34;57.41
85163;BME280;75527;48.526;9.158;2024-01-15T09:59:33;95978.69;;;0.34;57.19
85163;BME280;75527;48.526;9.158;2024-01-15T10:02:00;95987.63;;;0.38;56.63
85163;BME280;75527;48.526;9.158;2024-01-15T10:04:26;95989.56;;;0.43;56.81
85163;BME280;75527;48.526;9.158;2024-01-15T10:06:52;95980.97;;;0.42;57.03
85163;BME280;75527;48.526;9.158;2024-01-15T10:09:18;95981.84;;;0.48;56.86
85163;BME280;75527;48.526;9.158;2024-01-15T10:11:44;95965.81;;;0.39;56.63
85163;BME280;75527;48.526;9.158;2024-01-15T10:14:11;95975.28;;;0.57;58.05
85163;BME280;75527;48.526;9.158;2024-01-15T10:16:40;95942.31;;;0.34;56.29
85163;BME280;75527;48.526;9.158;2024-01-15T10:19:06;95985.91;;;0.56;57.61
85163;BME280;75527;48.526;9.158;2024-01-15T10:21:32;95980.50;;;0.57;56.37
85163;BME280;75527;48.526;9.158;2024-01-15T10:24:00;95968.69;;;0.66;56.75
85163;BME280;75527;48.526;9.158;2024-01-15T10:26:25;95957.72;;;0.64;55.66
85163;BME280;75527;48.526;9.158;2024-01-15T10:28:51;95955.47;;;0.68;58.02
85163;BME280;75527;48.526;9.158;2024-01-15T10:31:19;95942.38;;;0.91;56.68
85163;BME280;75527;48.526;9.158;2024-01-15T10:33:47;95957.53;;;1.56;53.21
85163;BME280;75527;48.526;9.158;2024-01-15T10:36:12;95928.31;;;1.21;53.40
85163;BME280;75527;48.526;9.158;2024-01-15T10:38:37;95920.41;;;1.16;54.12
85163;BME280;75527;48.526;9.158;2024-01-15T10:41:03;95947.56;;;1.37;53.52
85163;BME280;75527;48.526;9.158;2024-01-15T10:43:29;95944.44;;;1.35;54.39
85163;BME280;75527;48.526;9.158;2024-01-15T10:45:54;95939.25;;;1.23;54.55
85163;BME280;75527;48.526;9.158;2024-01-15T10:48:20;95938.81;;;0.97;54.94
85163;BME280;75527;48.526;9.158;2024-01-15T10:50:46;95943.84;;;0.87;56.01
85163;BME280;75527;48.526;9.158;2024-01-15T10:53:17;95952.78;;;0.91;55.03
85163;BME280;75527;48.526;9.158;2024-01-15T10:55:42;95942.06;;;0.76;57.18
85163;BME280;75527;48.526;9.158;2024-01-15T10:58:09;95934.50;;;0.74;56.72
85163;BME280;75527;48.526;9.158;2024-01-15T11:00:38;95938.78;;;0.81;57.08
85163;BME280;75527;48.526;9.158;2024-01-15T11:03:05;95943.94;;;0.64;56.50
85163;BME280;75527;48.526;9.158;2024-01-15T11:05:37;95924.84;;;0.58;57.27
85163;BME280;75527;48.526;9.158;2024-01-15T11:08:05;95957.94;;;0.74;57.94
85163;BME280;75527;48.526;9.158;2024-01-15T11:10:43;95937.47;;;0.66;56.59
85163;BME280;75527;48.526;9.158;2024-01-15T11:13:22;95949.94;;;0.64;58.39
85163;BME280;75527;48.526;9.158;2024-01-15T11:16:05;95945.31;;;0.55;58.18
85163;BME280;75527;48.526;9.158;2024-01-15T11:21:22;95935.97;;;0.42;59.11
85163;BME280;75527;48.526;9.158;2024-01-15T11:23:59;95955.72;;;0.55;58.28
85163;BME280;75527;48.526;9.158;2024-01-15T11:29:00;95959.06;;;0.67;58.87
85163;BME280;75527;48.526;9.158;2024-01-15T11:34:12;95938.28;;;0.55;60.01
85163;BME280;75527;48.526;9.158;2024-01-15T11:41:59;95933.22;;;0.48;60.66
85163;BME280;75527;48.526;9.158;2024-01-15T11:44:25;95942.72;;;0.55;60.14
85163;BME280;75527;48.526;9.158;2024-01-15T11:50:01;95919.03;;;0.28;62.81
85163;BME280;75527;48.526;9.158;2024-01-15T11:52:37;95963.22;;;0.39;64.09
85163;BME280;75527;48.526;9.158;2024-01-15T11:55:19;95941.75;;;0.20;63.66
85163;BME280;75527;48.526;9.158;2024-01-15T11:57:49;95938.38;;;0.20;65.47
85163;BME280;75527;48.526;9.158;2024-01-15T12:00:15;95911.28;;;-0.08;66.54
85163;BME280;75527;48.526;9.158;2024-01-15T12:02:41;95933.88;;;0.04;65.03
85163;BME280;75527;48.526;9.158;2024-01-15T12:05:12;95948.66;;;0.27;65.93
85163;BME280;75527;48.526;9.158;2024-01-15T12:07:44;95940.41;;;0.18;64.50
85163;BME280;75527;48.526;9.158;2024-01-15T12:10:11;95945.03;;;0.28;65.08
85163;BME280;75527;48.526;9.158;2024-01-15T12:12:53;95931.81;;;0.29;65.87
85163;BME280;75527;48.526;9.158;2024-01-15T12:15:20;95959.13;;;0.43;64.05
85163;BME280;75527;48.526;9.158;2024-01-15T12:17:46;95935.44;;;0.28;64.37
85163;BME280;75527;48.526;9.158;2024-01-15T12:20:12;95941.28;;;0.35;65.85
85163;BME280;75527;48.526;9.158;2024-01-15T12:22:38;95928.19;;;0.30;65.47
85163;BME280;75527;48.526;9.158;2024-01-15T12:25:03;95915.66;;;0.27;65.18
85163;BME280;75527;48.526;9.158;2024-01-15T12:27:29;95915.41;;;0.29;64.64
85163;BME280;75527;48.526;9.158;2024-01-15T12:29:54;95938.69;;;0.47;64.21
85163;BME280;75527;48.526;9.158;2024-01-15T12:32:20;95940.25;;;0.48;65.07
85163;BME280;75527;48.526;9.158;2024-01-15T12:34:51;95923.88;;;0.36;66.12
85163;BME280;75527;48.526;9.158;2024-01-15T12:37:19;95930.63;;;0.48;65.21
85163;BME280;75527;48.526;9.158;2024-01-15T12:39:47;95913.03;;;0.39;65.17
85163;BME280;75527;48.526;9.158;2024-01-15T12:42:16;95909.78;;;0.32;65.42
85163;BME280;75527;48.526;9.158;2024-01-15T12:44:42;95938.00;;;0.40;64.80
85163;BME280;75527;48.526;9.158;2024-01-15T12:47:07;95904.03;;;0.18;65.50
85163;BME280;75527;48.526;9.158;2024-01-15T12:49:32;95931.13;;;0.34;66.90
85163;BME280;75527;48.526;9.158;2024-01-15T12:51:59;95937.91;;;0.23;68.86
85163;BME280;75527;48.526;9.158;2024-01-15T12:54:25;95941.53;;;0.22;68.08
85163;BME280;75527;48.526;9.158;2024-01-15T12:56:51;95944.25;;;0.15;69.30
85163;BME280;75527;48.526;9.158;2024-01-15T12:59:17;95942.22;;;0.17;68.75
85163;BME280;75527;48.526;9.158;2024-01-15T13:01:43;95939.28;;;0.14;69.09
85163;BME280;75527;48.526;9.158;2024-01-15T13:04:09;95928.91;;;0.02;69.17
85163;BME280;75527;48.526;9.158;2024-01-15T13:06:35;95967.44;;;0.17;70.00
85163;BME280;75527;48.526;9.158;2024-01-15T13:09:02;95911.28;;;-0.08;70.46
85163;BME280;75527;48.526;9.158;2024-01-15T13:11:28;95932.63;;;-0.06;72.43
85163;BME280;75527;48.526;9.158;2024-01-15T13:13:53;95921.69;;;-0.08;72.09